La Guardia Airport
KLGA : now visible

Airfield :











YOU CAN JOIN US ON...

 
LOGIN :

Register | Disclaimer

   EN    FR    IT 

 









Legend :    VFR   Marginal VFR   IFR   Intensive IFR   Very Intensive IFR
Visi :
Ceiling :
>= 8 km
>= 3000ft
5 to 8 km
1000 to 3000 ft
1500m to 5 km
500 to 1000 ft
800 to 1500m
200 to 500 ft
< 800m
< 200 ft
Symbols :   Thunderstorms  Fog  Heavy snow  Heavy precipitations  Wind > 20 kt






- Airport Elevation : 21 ft
- IATA code : LGA


KLGA - La Guardia

CURRENT METAR :
  • 150351Z 22007KT 10SM OVC060 16/10 A2986 RMK AO2 SLP110 T01560100

EXPIRED METARs :
  • 150251Z 22011KT 10SM OVC075 16/09 A2987 RMK AO2 SLP115 T01610094 58007
  • 150151Z 22011KT 10SM FEW030 OVC080 17/09 A2989 RMK AO2 SLP121 T01670094

TAF KLGA
Valid from the 15 at 03:00 until the 16 at 06:00 UTC


150232Z 1503/1606 22008KT P6SM SCT020 BKN035
FM150400 18006KT P6SM VCSH SCT008 BKN020
FM150600 14006KT 6SM -RA BR BKN008 OVC015
FM151100 10009KT 3SM -RA BR OVC006
FM151700 09010KT 2SM RA BR OVC006
FM152100 05009KT 2SM RA BR OVC006
FM160200 35014G20KT P6SM VCSH OVC020
KZNY FIR / North America



MET'MAP, your aeronautical weather chart ! - Copyright ORBIFLY December 2007 - Disclaimer

ORBIFLY MET'MAP TEAM :

Programming & Development : Alexandra Zaïnal
Concept & original design : Baudouin d'Aumeries
Assistance for programming : Marc-Olivier Méhu
Technical & hardware support : Manuel Goepfert

Contact : metmap@orbifly.com




SOURCES & CREDITS :

   NOAA       Earth
Advisory